Time;durP1;ratioP1;P1;durP2;ratioP2;P2;SDS_P1;SDS_P2;PMS_P1;PMS_P2;Temp;Humidity;BMP_temperature;BMP_pressure;BME280_temperature;BME280_humidity;BME280_pressure;Samples;Min_cycle;Max_cycle;Signal;HPM_P1;HPM_P2
2022/07/21 00:00:12;;;;;;;14.10;12.07;;;;;;;;;;5034443;28;20949;-50
2022/07/21 00:02:38;;;;;;;14.53;13.03;;;;;;;;;;5034632;28;20461;-51
2022/07/21 00:05:04;;;;;;;14.40;12.37;;;;;;;;;;5034567;28;20502;-49
2022/07/21 00:07:30;;;;;;;14.40;12.90;;;;;;;;;;5034522;28;20410;-50
2022/07/21 00:09:56;;;;;;;15.90;11.90;;;;;;;;;;5034312;28;20529;-50
2022/07/21 00:12:22;;;;;;;14.73;13.20;;;;;;;;;;5034726;28;20502;-49
2022/07/21 00:14:48;;;;;;;15.83;13.47;;;;;;;;;;5034585;28;20406;-49
2022/07/21 00:17:14;;;;;;;17.60;13.50;;;;;;;;;;5034367;28;20400;-49
2022/07/21 00:19:40;;;;;;;14.43;12.87;;;;;;;;;;5034324;28;20430;-50
2022/07/21 00:22:06;;;;;;;16.30;13.30;;;;;;;;;;5034778;28;20439;-51
2022/07/21 00:24:32;;;;;;;12.47;11.37;;;;;;;;;;5034664;28;20782;-51
2022/07/21 00:26:58;;;;;;;8.70;7.90;;;;;;;;;;5034535;28;20437;-50
2022/07/21 00:29:24;;;;;;;8.80;8.00;;;;;;;;;;5034220;28;20434;-51
2022/07/21 00:31:50;;;;;;;9.43;7.50;;;;;;;;;;5034171;28;20464;-50
2022/07/21 00:34:16;;;;;;;7.70;7.00;;;;;;;;;;5034283;28;20396;-50
2022/07/21 00:36:42;;;;;;;8.33;7.60;;;;;;;;;;5034204;28;20503;-51
2022/07/21 00:39:08;;;;;;;9.43;7.80;;;;;;;;;;5033918;28;20447;-49
2022/07/21 00:41:34;;;;;;;10.20;7.43;;;;;;;;;;5034019;28;20402;-50
2022/07/21 00:44:00;;;;;;;8.03;7.30;;;;;;;;;;5034035;28;20907;-50
2022/07/21 00:46:26;;;;;;;7.97;7.27;;;;;;;;;;5033944;28;20430;-51
2022/07/21 00:48:52;;;;;;;11.97;7.53;;;;;;;;;;5033743;28;20455;-50
2022/07/21 00:51:18;;;;;;;12.30;8.20;;;;;;;;;;5033974;28;20551;-50
2022/07/21 00:53:44;;;;;;;15.37;8.43;;;;;;;;;;5034062;28;20760;-50
2022/07/21 00:56:11;;;;;;;9.77;8.13;;;;;;;;;;5033958;28;20460;-51
2022/07/21 00:58:37;;;;;;;9.50;8.50;;;;;;;;;;5033437;28;20425;-52
2022/07/21 01:01:03;;;;;;;9.83;8.30;;;;;;;;;;5033210;28;20482;-51
2022/07/21 01:03:29;;;;;;;14.80;8.90;;;;;;;;;;5032708;28;20406;-52
2022/07/21 01:05:58;;;;;;;13.00;9.97;;;;;;;;;;5032884;28;20489;-51
2022/07/21 01:08:24;;;;;;;10.90;9.43;;;;;;;;;;5033036;28;20427;-50
2022/07/21 01:10:50;;;;;;;12.77;10.73;;;;;;;;;;5033584;28;20869;-51
2022/07/21 01:13:16;;;;;;;10.70;9.70;;;;;;;;;;5033313;28;20436;-51
2022/07/21 01:15:42;;;;;;;10.87;9.77;;;;;;;;;;5033631;28;20825;-51
2022/07/21 01:18:09;;;;;;;10.93;9.83;;;;;;;;;;5033196;28;20410;-50
2022/07/21 01:20:35;;;;;;;12.00;10.43;;;;;;;;;;5033024;28;20497;-51
2022/07/21 01:23:02;;;;;;;12.43;9.70;;;;;;;;;;5033181;28;20407;-51
2022/07/21 01:25:28;;;;;;;10.30;9.30;;;;;;;;;;5033266;28;20406;-51
2022/07/21 01:27:54;;;;;;;12.20;9.97;;;;;;;;;;5033081;28;20433;-51
2022/07/21 01:30:20;;;;;;;13.57;11.00;;;;;;;;;;5032586;28;20398;-51
2022/07/21 01:32:46;;;;;;;11.50;10.40;;;;;;;;;;5032994;28;20890;-51
2022/07/21 01:35:13;;;;;;;11.83;9.47;;;;;;;;;;5033017;28;20403;-51
2022/07/21 01:37:40;;;;;;;10.40;9.30;;;;;;;;;;5032699;28;20462;-50
2022/07/21 01:42:54;;;;;;;12.07;9.73;;;;;;;;;;5032842;28;20434;-51
2022/07/21 01:45:20;;;;;;;15.27;10.47;;;;;;;;;;5032682;28;20430;-51
2022/07/21 01:47:46;;;;;;;10.53;9.53;;;;;;;;;;5032573;28;20442;-51
2022/07/21 01:50:12;;;;;;;12.03;10.83;;;;;;;;;;5032285;28;20776;-50
2022/07/21 01:52:38;;;;;;;12.27;10.97;;;;;;;;;;5032575;28;20434;-51
2022/07/21 01:55:05;;;;;;;19.20;11.27;;;;;;;;;;5032377;28;20414;-51
2022/07/21 01:57:31;;;;;;;12.10;10.80;;;;;;;;;;5032238;28;20421;-51
2022/07/21 01:59:57;;;;;;;11.70;9.33;;;;;;;;;;5032191;28;20402;-49
2022/07/21 02:02:23;;;;;;;13.53;11.57;;;;;;;;;;5032587;28;20402;-52
2022/07/21 02:04:49;;;;;;;11.03;9.93;;;;;;;;;;5032297;28;20914;-50
2022/07/21 02:07:15;;;;;;;16.93;11.17;;;;;;;;;;5032404;28;20398;-51
2022/07/21 02:09:42;;;;;;;11.60;10.23;;;;;;;;;;5031789;28;20810;-51
2022/07/21 02:12:08;;;;;;;12.90;10.27;;;;;;;;;;5032440;28;20524;-50
2022/07/21 02:14:33;;;;;;;14.47;9.97;;;;;;;;;;5032078;28;20802;-52
2022/07/21 02:16:59;;;;;;;10.43;8.60;;;;;;;;;;5032455;28;20456;-51
2022/07/21 02:19:25;;;;;;;16.10;9.00;;;;;;;;;;5031846;28;20806;-50
2022/07/21 02:21:51;;;;;;;12.50;8.47;;;;;;;;;;5032070;28;20511;-52
2022/07/21 02:24:17;;;;;;;11.67;8.53;;;;;;;;;;5032337;28;20405;-51
2022/07/21 02:26:43;;;;;;;9.80;8.00;;;;;;;;;;5031921;28;20768;-51
2022/07/21 02:29:09;;;;;;;15.60;9.30;;;;;;;;;;5031637;28;20430;-52
2022/07/21 02:31:35;;;;;;;10.63;8.40;;;;;;;;;;5031938;28;20457;-52
2022/07/21 02:34:01;;;;;;;12.80;8.87;;;;;;;;;;5031973;28;20458;-52
2022/07/21 02:36:27;;;;;;;11.73;9.73;;;;;;;;;;5031905;28;20476;-50
2022/07/21 02:38:53;;;;;;;8.67;7.87;;;;;;;;;;5031420;28;20440;-52
2022/07/21 02:41:19;;;;;;;10.87;9.37;;;;;;;;;;5031778;28;20400;-51
2022/07/21 02:43:45;;;;;;;8.33;7.53;;;;;;;;;;5031800;28;20400;-51
2022/07/21 02:46:11;;;;;;;10.07;6.73;;;;;;;;;;5031752;28;20412;-51
2022/07/21 02:48:37;;;;;;;13.67;8.70;;;;;;;;;;5031412;28;20478;-52
2022/07/21 02:51:03;;;;;;;10.30;8.30;;;;;;;;;;5031789;28;20460;-52
2022/07/21 02:53:29;;;;;;;9.50;8.50;;;;;;;;;;5031730;28;20400;-52
2022/07/21 02:55:55;;;;;;;11.40;9.63;;;;;;;;;;5031802;28;20807;-52
2022/07/21 02:58:25;;;;;;;18.23;9.80;;;;;;;;;;5031219;28;20430;-52
2022/07/21 03:00:53;;;;;;;11.17;9.60;;;;;;;;;;5031682;28;20405;-52
2022/07/21 03:03:19;;;;;;;14.50;9.13;;;;;;;;;;5031666;28;20812;-52
2022/07/21 03:05:45;;;;;;;12.13;9.90;;;;;;;;;;5031600;28;20402;-51
2022/07/21 03:08:11;;;;;;;11.67;10.37;;;;;;;;;;5031243;28;21026;-49
2022/07/21 03:10:38;;;;;;;10.90;9.57;;;;;;;;;;5031589;28;20500;-53
2022/07/21 03:13:04;;;;;;;11.57;10.13;;;;;;;;;;5031473;28;20405;-52
2022/07/21 03:15:31;;;;;;;11.97;9.17;;;;;;;;;;5031580;28;20396;-52
2022/07/21 03:17:57;;;;;;;9.70;8.37;;;;;;;;;;5031688;28;20518;-51
2022/07/21 03:20:27;;;;;;;13.53;8.77;;;;;;;;;;5031362;28;20372;-52
2022/07/21 03:22:53;;;;;;;10.40;8.90;;;;;;;;;;5031878;28;20432;-53
2022/07/21 03:25:19;;;;;;;12.20;9.30;;;;;;;;;;5031795;28;20462;-53
2022/07/21 03:27:46;;;;;;;8.83;7.93;;;;;;;;;;5034689;28;20495;-53
2022/07/21 03:30:12;;;;;;;23.37;8.93;;;;;;;;;;5034894;28;20417;-52
2022/07/21 03:32:38;;;;;;;13.20;10.27;;;;;;;;;;5035242;28;21022;-53
2022/07/21 03:35:06;;;;;;;8.83;8.00;;;;;;;;;;5035147;28;20492;-52
2022/07/21 03:37:32;;;;;;;11.77;8.70;;;;;;;;;;5034818;28;20414;-52
2022/07/21 03:39:58;;;;;;;11.20;8.70;;;;;;;;;;5034696;28;20434;-53
2022/07/21 03:42:24;;;;;;;11.40;9.43;;;;;;;;;;5034846;28;20436;-51
2022/07/21 03:44:50;;;;;;;10.00;9.00;;;;;;;;;;5034981;28;20379;-53
2022/07/21 03:47:17;;;;;;;9.90;8.00;;;;;;;;;;5034815;28;20413;-52
2022/07/21 03:49:43;;;;;;;10.70;8.57;;;;;;;;;;5034323;28;20517;-51
2022/07/21 03:52:09;;;;;;;10.43;9.13;;;;;;;;;;5034611;28;20447;-51
2022/07/21 03:54:35;;;;;;;10.30;8.27;;;;;;;;;;5034754;28;20436;-53
2022/07/21 03:57:01;;;;;;;9.53;8.40;;;;;;;;;;5034470;28;20508;-53
2022/07/21 03:59:27;;;;;;;12.23;9.50;;;;;;;;;;5034164;28;20512;-53
2022/07/21 04:01:53;;;;;;;9.40;8.53;;;;;;;;;;5034548;28;20414;-51
2022/07/21 04:04:19;;;;;;;9.53;8.63;;;;;;;;;;5034402;28;20931;-53
2022/07/21 04:06:46;;;;;;;10.27;9.00;;;;;;;;;;5034467;28;20487;-52
2022/07/21 04:09:12;;;;;;;10.43;8.73;;;;;;;;;;5034029;28;20425;-52
2022/07/21 04:11:38;;;;;;;10.80;8.60;;;;;;;;;;5034230;28;20508;-51
2022/07/21 04:14:04;;;;;;;10.10;8.90;;;;;;;;;;5034287;28;20426;-51
2022/07/21 04:16:30;;;;;;;10.87;9.43;;;;;;;;;;5034215;28;20900;-53
2022/07/21 04:18:55;;;;;;;10.67;8.13;;;;;;;;;;5033783;28;20425;-51
2022/07/21 04:21:21;;;;;;;9.57;8.00;;;;;;;;;;5034408;28;20416;-52
2022/07/21 04:23:47;;;;;;;10.73;8.90;;;;;;;;;;5034166;28;20428;-52
2022/07/21 04:26:13;;;;;;;11.10;9.00;;;;;;;;;;5034066;28;20435;-52
2022/07/21 04:28:39;;;;;;;13.83;8.37;;;;;;;;;;5033690;28;20472;-51
2022/07/21 04:31:05;;;;;;;9.77;8.77;;;;;;;;;;5033861;28;20460;-52
2022/07/21 04:33:31;;;;;;;10.03;9.03;;;;;;;;;;5033917;28;20395;-51
2022/07/21 04:35:57;;;;;;;9.37;8.47;;;;;;;;;;5034031;28;20408;-50
2022/07/21 04:38:23;;;;;;;11.97;8.90;;;;;;;;;;5032446;28;20448;-50
2022/07/21 04:40:49;;;;;;;10.30;9.30;;;;;;;;;;5033933;28;20431;-52
2022/07/21 04:43:15;;;;;;;10.33;9.30;;;;;;;;;;5033831;28;20808;-52
2022/07/21 04:45:41;;;;;;;11.43;10.07;;;;;;;;;;5034525;28;20451;-50
2022/07/21 04:48:07;;;;;;;11.07;9.87;;;;;;;;;;5033442;28;20433;-49
2022/07/21 04:50:33;;;;;;;10.73;9.63;;;;;;;;;;5033321;28;20410;-50
2022/07/21 04:52:59;;;;;;;10.53;9.50;;;;;;;;;;5033560;28;20893;-51
2022/07/21 04:55:25;;;;;;;12.70;10.40;;;;;;;;;;5033505;28;20413;-50
2022/07/21 04:57:52;;;;;;;13.87;11.37;;;;;;;;;;5033370;28;20422;-50
2022/07/21 05:00:19;;;;;;;12.43;9.93;;;;;;;;;;5033189;28;20911;-50
2022/07/21 05:02:46;;;;;;;16.33;12.47;;;;;;;;;;5033244;28;20874;-50
2022/07/21 05:05:12;;;;;;;15.03;12.20;;;;;;;;;;5032373;28;20401;-50
2022/07/21 05:07:38;;;;;;;13.20;11.80;;;;;;;;;;5032873;28;20414;-50
2022/07/21 05:10:09;;;;;;;15.43;12.20;;;;;;;;;;5032703;28;20402;-49
2022/07/21 05:12:35;;;;;;;13.97;12.50;;;;;;;;;;5032640;28;20476;-49
2022/07/21 05:15:01;;;;;;;16.80;12.40;;;;;;;;;;5032457;28;20901;-50
2022/07/21 05:17:27;;;;;;;16.03;13.20;;;;;;;;;;5032491;28;20533;-50
2022/07/21 05:19:53;;;;;;;18.13;13.43;;;;;;;;;;5032262;28;20536;-49
2022/07/21 05:22:19;;;;;;;15.50;13.53;;;;;;;;;;5032209;28;20881;-51
2022/07/21 05:24:45;;;;;;;15.83;13.90;;;;;;;;;;5032250;28;20406;-50
2022/07/21 05:27:11;;;;;;;18.57;14.60;;;;;;;;;;5032130;28;20406;-51
2022/07/21 05:29:37;;;;;;;15.50;13.43;;;;;;;;;;5031879;28;20815;-50
2022/07/21 05:32:04;;;;;;;17.80;15.20;;;;;;;;;;5031661;28;20512;-49
2022/07/21 05:34:30;;;;;;;18.20;12.93;;;;;;;;;;5031745;28;20453;-50
2022/07/21 05:36:56;;;;;;;16.43;14.07;;;;;;;;;;5032072;28;20414;-50
2022/07/21 05:39:22;;;;;;;16.13;14.07;;;;;;;;;;5031625;28;20438;-49
2022/07/21 05:41:48;;;;;;;21.27;15.00;;;;;;;;;;5031972;28;20445;-49
2022/07/21 05:44:14;;;;;;;17.70;14.70;;;;;;;;;;5031739;28;20932;-50
2022/07/21 05:46:40;;;;;;;17.90;15.10;;;;;;;;;;5031155;28;20459;-50
2022/07/21 05:49:06;;;;;;;15.90;14.20;;;;;;;;;;5030129;28;20415;-49
2022/07/21 05:51:32;;;;;;;19.77;15.47;;;;;;;;;;5032131;28;20442;-50
2022/07/21 05:53:58;;;;;;;19.47;16.03;;;;;;;;;;5031856;28;20395;-49
2022/07/21 05:56:24;;;;;;;16.17;13.37;;;;;;;;;;5032164;28;20409;-50
2022/07/21 05:58:50;;;;;;;17.97;14.90;;;;;;;;;;5031956;28;20420;-49
2022/07/21 06:01:16;;;;;;;17.17;14.30;;;;;;;;;;5032138;28;20910;-50
2022/07/21 06:03:44;;;;;;;21.97;14.53;;;;;;;;;;5032286;28;20399;-49
2022/07/21 06:06:10;;;;;;;15.37;13.70;;;;;;;;;;5032226;28;20413;-48
2022/07/21 06:08:40;;;;;;;15.53;13.90;;;;;;;;;;5032082;28;20461;-49
2022/07/21 06:11:06;;;;;;;17.30;12.93;;;;;;;;;;5032070;28;20453;-49
2022/07/21 06:13:32;;;;;;;16.83;13.40;;;;;;;;;;5032045;28;20413;-50
2022/07/21 06:15:58;;;;;;;13.97;12.57;;;;;;;;;;5032043;28;20405;-50
2022/07/21 06:18:24;;;;;;;14.80;13.30;;;;;;;;;;5031619;28;20500;-49
2022/07/21 06:20:50;;;;;;;14.77;13.13;;;;;;;;;;5032046;28;20417;-49
2022/07/21 06:23:16;;;;;;;14.33;12.63;;;;;;;;;;5031961;28;20403;-49
2022/07/21 06:25:42;;;;;;;14.10;12.53;;;;;;;;;;5031917;28;20413;-50
2022/07/21 06:28:08;;;;;;;15.73;14.13;;;;;;;;;;5031685;28;20425;-49
2022/07/21 06:30:34;;;;;;;14.70;13.13;;;;;;;;;;5031619;28;20880;-49
2022/07/21 06:33:00;;;;;;;15.33;13.43;;;;;;;;;;5031913;28;20452;-50
2022/07/21 06:35:26;;;;;;;15.33;13.10;;;;;;;;;;5032037;28;20815;-49
2022/07/21 06:37:52;;;;;;;14.93;13.30;;;;;;;;;;5031821;28;20531;-49
2022/07/21 06:40:18;;;;;;;16.63;13.33;;;;;;;;;;5031519;28;20440;-49
2022/07/21 06:42:44;;;;;;;14.33;12.87;;;;;;;;;;5031676;28;20907;-50
2022/07/21 06:45:10;;;;;;;13.73;12.43;;;;;;;;;;5031785;28;20444;-50
2022/07/21 06:47:36;;;;;;;13.23;11.73;;;;;;;;;;5031899;28;20417;-49
2022/07/21 06:50:03;;;;;;;14.33;11.50;;;;;;;;;;5031561;28;20447;-49
2022/07/21 06:52:29;;;;;;;13.40;12.10;;;;;;;;;;5031578;28;20820;-50
2022/07/21 06:54:56;;;;;;;14.80;13.40;;;;;;;;;;5031720;28;20431;-49
2022/07/21 06:57:22;;;;;;;15.67;13.20;;;;;;;;;;5031572;28;20413;-49
2022/07/21 06:59:48;;;;;;;15.03;12.83;;;;;;;;;;5031395;28;20409;-51
2022/07/21 07:02:14;;;;;;;13.70;12.50;;;;;;;;;;5034178;28;20913;-50
2022/07/21 07:04:40;;;;;;;18.20;12.97;;;;;;;;;;5035823;28;20398;-48
2022/07/21 07:07:06;;;;;;;19.73;13.97;;;;;;;;;;5035486;28;20412;-50
2022/07/21 07:09:32;;;;;;;14.13;12.63;;;;;;;;;;5035062;28;20426;-49
2022/07/21 07:12:03;;;;;;;13.33;11.93;;;;;;;;;;5035302;28;20459;-49
2022/07/21 07:14:32;;;;;;;11.30;10.20;;;;;;;;;;5035452;28;20402;-50
2022/07/21 07:16:59;;;;;;;11.97;10.77;;;;;;;;;;5035302;28;20410;-50
2022/07/21 07:19:25;;;;;;;12.27;11.07;;;;;;;;;;5034924;28;20999;-48
2022/07/21 07:21:51;;;;;;;12.77;10.17;;;;;;;;;;5035194;28;20408;-49
2022/07/21 07:24:17;;;;;;;15.90;10.90;;;;;;;;;;5035113;28;20408;-49
2022/07/21 07:26:43;;;;;;;12.90;11.03;;;;;;;;;;5035203;28;20415;-50
2022/07/21 07:29:09;;;;;;;12.50;11.20;;;;;;;;;;5034782;28;20460;-50
2022/07/21 07:31:35;;;;;;;12.77;11.57;;;;;;;;;;5035032;28;20451;-50
2022/07/21 07:34:01;;;;;;;14.33;11.27;;;;;;;;;;5035139;28;20893;-49
2022/07/21 07:36:28;;;;;;;14.30;12.10;;;;;;;;;;5035006;28;20488;-50
2022/07/21 07:38:54;;;;;;;13.47;12.13;;;;;;;;;;5034456;28;20535;-50
2022/07/21 07:41:21;;;;;;;13.43;10.60;;;;;;;;;;5034906;28;20416;-50
2022/07/21 07:43:47;;;;;;;13.20;11.83;;;;;;;;;;5034816;28;20471;-49
2022/07/21 07:46:13;;;;;;;14.43;12.00;;;;;;;;;;5034905;28;20446;-50
2022/07/21 07:48:43;;;;;;;14.03;10.93;;;;;;;;;;5034365;28;20429;-49
2022/07/21 07:51:10;;;;;;;12.63;11.37;;;;;;;;;;5034685;28;21098;-50
2022/07/21 07:53:36;;;;;;;13.33;10.60;;;;;;;;;;5034616;28;20496;-49
2022/07/21 07:56:02;;;;;;;14.00;12.47;;;;;;;;;;5034818;28;20769;-48
2022/07/21 07:58:28;;;;;;;12.10;11.00;;;;;;;;;;5039042;28;20439;-49
2022/07/21 08:00:54;;;;;;;12.73;11.57;;;;;;;;;;5034353;28;20968;-50
2022/07/21 08:03:20;;;;;;;12.37;10.83;;;;;;;;;;5034416;28;20407;-50
2022/07/21 08:05:47;;;;;;;9.57;8.60;;;;;;;;;;5034424;28;20402;-49
2022/07/21 08:08:13;;;;;;;9.60;8.67;;;;;;;;;;5033976;28;20979;-51
2022/07/21 08:10:39;;;;;;;9.13;8.33;;;;;;;;;;5034469;28;20485;-49
2022/07/21 08:13:05;;;;;;;12.87;9.20;;;;;;;;;;5032923;28;20521;-50
2022/07/21 08:15:31;;;;;;;8.97;8.07;;;;;;;;;;5034235;28;20475;-49
2022/07/21 08:17:57;;;;;;;8.67;7.97;;;;;;;;;;5034166;28;20455;-49
2022/07/21 08:20:23;;;;;;;8.50;7.80;;;;;;;;;;5033829;28;20399;-50
2022/07/21 08:22:49;;;;;;;9.40;8.50;;;;;;;;;;5034028;28;20937;-50
2022/07/21 08:25:15;;;;;;;13.20;7.57;;;;;;;;;;5034140;28;20396;-50
2022/07/21 08:27:42;;;;;;;7.20;6.50;;;;;;;;;;5034036;28;20565;-48
2022/07/21 08:30:08;;;;;;;8.93;7.93;;;;;;;;;;5033733;28;20407;-50
2022/07/21 08:32:34;;;;;;;7.23;6.53;;;;;;;;;;5033912;28;20466;-50
2022/07/21 08:35:00;;;;;;;8.53;7.23;;;;;;;;;;5033848;28;20404;-51
2022/07/21 08:37:26;;;;;;;9.57;7.10;;;;;;;;;;5033628;28;20401;-50
2022/07/21 08:39:52;;;;;;;6.20;5.70;;;;;;;;;;5033651;28;20402;-50
2022/07/21 08:42:18;;;;;;;6.20;5.70;;;;;;;;;;5033870;28;21060;-50
2022/07/21 08:44:44;;;;;;;10.67;6.33;;;;;;;;;;5033736;28;20748;-49
2022/07/21 08:47:10;;;;;;;6.70;6.10;;;;;;;;;;5033715;28;20398;-49
2022/07/21 08:49:38;;;;;;;8.30;6.60;;;;;;;;;;5033188;28;20422;-50
2022/07/21 08:52:06;;;;;;;7.53;6.40;;;;;;;;;;5033430;28;20825;-49
2022/07/21 08:54:32;;;;;;;7.37;6.57;;;;;;;;;;5033780;28;20438;-49
2022/07/21 08:56:58;;;;;;;7.90;6.50;;;;;;;;;;5033563;28;20403;-50
2022/07/21 08:59:26;;;;;;;8.47;6.90;;;;;;;;;;5032995;28;20426;-50
2022/07/21 09:01:52;;;;;;;6.37;5.80;;;;;;;;;;5033292;28;20406;-50
2022/07/21 09:04:21;;;;;;;11.17;6.30;;;;;;;;;;5033215;28;20410;-50
2022/07/21 09:06:58;;;;;;;5.80;5.40;;;;;;;;;;5032255;28;20418;-50
2022/07/21 09:09:25;;;;;;;6.90;6.30;;;;;;;;;;5032915;28;20505;-49
2022/07/21 09:11:51;;;;;;;6.40;5.90;;;;;;;;;;5031595;28;20464;-49
2022/07/21 09:14:19;;;;;;;7.47;5.90;;;;;;;;;;5032559;28;20417;-51
2022/07/21 09:16:46;;;;;;;6.70;6.20;;;;;;;;;;5032314;28;20425;-49
2022/07/21 09:19:21;;;;;;;7.40;6.73;;;;;;;;;;5032525;28;20429;-49
2022/07/21 09:21:48;;;;;;;8.53;6.43;;;;;;;;;;5032569;28;20415;-50
2022/07/21 09:24:20;;;;;;;7.13;6.43;;;;;;;;;;5032599;28;20407;-50
2022/07/21 09:27:05;;;;;;;8.60;6.80;;;;;;;;;;5032550;28;20422;-49
2022/07/21 09:29:51;;;;;;;8.03;7.33;;;;;;;;;;5032294;28;20423;-50
2022/07/21 09:32:28;;;;;;;8.50;7.80;;;;;;;;;;5032307;28;20461;-48
2022/07/21 09:35:20;;;;;;;7.60;6.90;;;;;;;;;;5032519;28;20473;-49
2022/07/21 09:37:46;;;;;;;7.17;6.53;;;;;;;;;;5025008;28;20540;-49
2022/07/21 09:40:13;;;;;;;7.10;6.60;;;;;;;;;;5032418;28;20523;-50
2022/07/21 09:42:41;;;;;;;8.23;7.53;;;;;;;;;;5031969;28;20417;-49
2022/07/21 09:45:11;;;;;;;6.90;6.30;;;;;;;;;;5032076;28;20427;-49
2022/07/21 09:47:38;;;;;;;6.60;6.07;;;;;;;;;;5032071;28;20520;-48
2022/07/21 09:50:05;;;;;;;6.60;5.77;;;;;;;;;;5031786;28;20437;-49
2022/07/21 09:52:32;;;;;;;8.70;6.13;;;;;;;;;;5034277;28;20464;-50
2022/07/21 09:55:00;;;;;;;6.97;6.37;;;;;;;;;;5031888;28;20411;-49
2022/07/21 09:57:26;;;;;;;7.07;6.40;;;;;;;;;;5048893;28;20437;-48
2022/07/21 09:59:53;;;;;;;8.10;7.40;;;;;;;;;;5051690;28;20421;-48
2022/07/21 10:02:22;;;;;;;7.87;7.07;;;;;;;;;;5034739;28;20468;-49
2022/07/21 10:04:58;;;;;;;7.07;6.40;;;;;;;;;;5020774;28;20410;-48
2022/07/21 10:07:25;;;;;;;7.03;5.83;;;;;;;;;;5032239;28;20401;-50
2022/07/21 10:09:51;;;;;;;10.53;6.90;;;;;;;;;;5031634;28;20419;-50
2022/07/21 10:12:18;;;;;;;8.03;6.90;;;;;;;;;;5031105;28;20546;-51
2022/07/21 10:14:44;;;;;;;7.73;7.03;;;;;;;;;;5037777;28;20913;-49
2022/07/21 10:17:10;;;;;;;7.13;6.53;;;;;;;;;;5032485;28;20422;-49
2022/07/21 10:19:47;;;;;;;7.23;6.63;;;;;;;;;;5041928;28;20450;-49
2022/07/21 10:22:22;;;;;;;8.13;6.63;;;;;;;;;;5041080;28;20489;-49
2022/07/21 10:24:48;;;;;;;6.20;5.60;;;;;;;;;;5047605;28;20441;-50
2022/07/21 10:27:14;;;;;;;8.57;5.73;;;;;;;;;;5047906;28;20425;-50
2022/07/21 10:30:19;;;;;;;6.80;6.30;;;;;;;;;;5051354;28;20438;-49
2022/07/21 10:32:51;;;;;;;7.27;6.67;;;;;;;;;;5025292;28;20986;-50
2022/07/21 10:35:28;;;;;;;7.00;6.10;;;;;;;;;;4995501;28;20436;-49
2022/07/21 10:37:54;;;;;;;6.57;6.00;;;;;;;;;;5009987;28;20832;-48
2022/07/21 10:40:20;;;;;;;7.20;6.00;;;;;;;;;;5031313;28;20459;-48
2022/07/21 10:43:06;;;;;;;6.47;5.97;;;;;;;;;;5037944;28;20428;-51
2022/07/21 10:45:33;;;;;;;9.03;5.90;;;;;;;;;;5031570;28;20404;-51
2022/07/21 10:48:00;;;;;;;6.37;5.77;;;;;;;;;;5041570;28;20483;-49
2022/07/21 10:50:36;;;;;;;8.40;6.43;;;;;;;;;;5047432;28;21053;-49
2022/07/21 10:53:15;;;;;;;6.50;5.80;;;;;;;;;;5045305;28;20569;-51
2022/07/21 10:55:48;;;;;;;7.23;5.60;;;;;;;;;;5045705;28;20430;-49
2022/07/21 10:58:16;;;;;;;6.97;6.17;;;;;;;;;;5043049;28;20440;-50
2022/07/21 11:00:48;;;;;;;6.90;6.30;;;;;;;;;;5030808;28;20496;-50
2022/07/21 11:03:16;;;;;;;7.67;6.07;;;;;;;;;;5031038;28;20425;-51
2022/07/21 11:06:00;;;;;;;7.20;6.47;;;;;;;;;;5040229;28;20425;-51
2022/07/21 11:08:36;;;;;;;10.43;6.10;;;;;;;;;;5041509;28;20999;-50
2022/07/21 11:11:11;;;;;;;8.97;6.23;;;;;;;;;;5035066;28;20471;-49
2022/07/21 11:14:09;;;;;;;6.37;5.73;;;;;;;;;;5039881;28;20781;-50
2022/07/21 11:19:33;;;;;;;8.50;5.70;;;;;;;;;;5030814;28;20496;-50
2022/07/21 11:22:00;;;;;;;7.50;5.80;;;;;;;;;;5030287;28;20440;-50
2022/07/21 11:24:27;;;;;;;7.10;6.10;;;;;;;;;;5032126;28;20434;-49
2022/07/21 11:26:59;;;;;;;7.23;6.63;;;;;;;;;;5051187;28;20456;-49
2022/07/21 11:29:25;;;;;;;8.40;7.00;;;;;;;;;;5034536;28;20447;-50
2022/07/21 11:31:52;;;;;;;8.23;7.00;;;;;;;;;;5040822;28;20535;-49
2022/07/21 11:34:18;;;;;;;7.40;6.70;;;;;;;;;;5034393;28;20414;-49
2022/07/21 11:36:44;;;;;;;9.17;7.20;;;;;;;;;;5049010;28;20776;-50
2022/07/21 11:39:11;;;;;;;6.37;5.77;;;;;;;;;;5036490;28;20449;-50
2022/07/21 11:41:38;;;;;;;9.43;7.93;;;;;;;;;;5046193;28;20450;-50
2022/07/21 11:44:05;;;;;;;11.60;7.40;;;;;;;;;;5035905;28;20512;-50
2022/07/21 11:46:46;;;;;;;8.77;7.50;;;;;;;;;;5031020;28;20451;-49
2022/07/21 11:49:12;;;;;;;9.40;7.90;;;;;;;;;;5041646;28;20987;-49
2022/07/21 11:51:38;;;;;;;7.27;6.67;;;;;;;;;;5054425;28;20555;-49
2022/07/21 11:54:04;;;;;;;12.27;9.40;;;;;;;;;;5051834;28;20511;-49
2022/07/21 11:56:36;;;;;;;10.50;8.80;;;;;;;;;;5052794;28;20396;-51
2022/07/21 11:59:09;;;;;;;10.03;8.27;;;;;;;;;;5042514;28;20449;-51
2022/07/21 12:01:48;;;;;;;10.60;8.30;;;;;;;;;;5033132;28;20404;-49
2022/07/21 12:04:14;;;;;;;11.03;8.63;;;;;;;;;;5040986;28;20420;-49
2022/07/21 12:06:40;;;;;;;9.47;8.40;;;;;;;;;;5033814;28;20409;-49
2022/07/21 12:09:06;;;;;;;13.77;9.40;;;;;;;;;;5042666;28;20438;-49
2022/07/21 12:11:36;;;;;;;11.63;9.50;;;;;;;;;;5034201;28;20449;-50
2022/07/21 12:14:02;;;;;;;14.10;9.40;;;;;;;;;;5042425;28;20429;-49
2022/07/21 12:16:28;;;;;;;11.70;9.77;;;;;;;;;;5033702;28;20416;-50
2022/07/21 12:19:11;;;;;;;10.10;8.80;;;;;;;;;;5034557;28;20998;-49
2022/07/21 12:21:43;;;;;;;14.43;10.23;;;;;;;;;;5033415;28;20462;-50
2022/07/21 12:24:09;;;;;;;10.50;9.37;;;;;;;;;;5021310;28;20840;-49
2022/07/21 12:26:35;;;;;;;10.60;9.50;;;;;;;;;;5049124;28;20437;-49
2022/07/21 12:29:01;;;;;;;10.40;9.40;;;;;;;;;;5043029;28;20553;-49
2022/07/21 12:31:27;;;;;;;9.73;8.57;;;;;;;;;;5033889;28;20457;-48
2022/07/21 12:33:55;;;;;;;10.10;8.67;;;;;;;;;;5033105;28;20900;-49
2022/07/21 12:36:21;;;;;;;9.33;8.53;;;;;;;;;;5033927;28;20758;-49
2022/07/21 12:38:48;;;;;;;8.73;7.93;;;;;;;;;;5035729;28;20495;-49
2022/07/21 12:41:18;;;;;;;8.43;7.63;;;;;;;;;;5044132;28;20444;-50
2022/07/21 12:43:53;;;;;;;9.00;8.00;;;;;;;;;;5049045;28;20434;-51
2022/07/21 12:46:19;;;;;;;7.27;6.63;;;;;;;;;;5033828;28;20428;-50
2022/07/21 12:48:46;;;;;;;6.60;6.00;;;;;;;;;;5042210;28;20453;-49
2022/07/21 12:51:15;;;;;;;9.17;6.00;;;;;;;;;;5031993;28;20549;-50
2022/07/21 12:53:45;;;;;;;5.30;4.90;;;;;;;;;;5034740;28;20440;-49
2022/07/21 12:56:12;;;;;;;5.90;5.33;;;;;;;;;;5049126;28;20417;-50
2022/07/21 12:58:38;;;;;;;6.33;5.73;;;;;;;;;;5033227;28;20479;-50
2022/07/21 13:01:05;;;;;;;5.67;5.17;;;;;;;;;;5032235;28;20835;-49
2022/07/21 13:03:32;;;;;;;6.63;5.97;;;;;;;;;;5022988;28;20453;-50
2022/07/21 13:05:58;;;;;;;8.00;5.97;;;;;;;;;;5043044;28;20936;-49
2022/07/21 13:08:24;;;;;;;6.07;5.47;;;;;;;;;;5044029;28;20454;-50
2022/07/21 13:10:50;;;;;;;7.60;6.90;;;;;;;;;;5043599;28;20511;-49
2022/07/21 13:13:16;;;;;;;8.80;7.00;;;;;;;;;;5049334;28;20793;-50
2022/07/21 13:15:42;;;;;;;7.03;6.43;;;;;;;;;;5052787;28;20956;-50
2022/07/21 13:18:08;;;;;;;7.60;6.90;;;;;;;;;;5031841;28;20480;-49
2022/07/21 13:20:34;;;;;;;6.90;6.30;;;;;;;;;;5051329;28;20459;-49
2022/07/21 13:23:00;;;;;;;6.60;6.10;;;;;;;;;;5042265;28;20497;-49
2022/07/21 13:25:26;;;;;;;7.10;6.57;;;;;;;;;;5043470;28;20440;-48
2022/07/21 13:27:52;;;;;;;6.73;6.03;;;;;;;;;;5042141;28;20448;-48
2022/07/21 13:30:19;;;;;;;7.20;6.50;;;;;;;;;;5032387;28;20428;-48
2022/07/21 13:32:45;;;;;;;8.00;6.37;;;;;;;;;;5034077;28;20507;-47
2022/07/21 13:35:11;;;;;;;6.17;5.67;;;;;;;;;;5039520;28;20453;-50
2022/07/21 13:37:37;;;;;;;9.00;7.17;;;;;;;;;;5043694;28;20775;-49
2022/07/21 13:40:04;;;;;;;7.83;5.40;;;;;;;;;;5047217;28;20923;-51
2022/07/21 13:42:30;;;;;;;6.07;5.47;;;;;;;;;;5043510;28;20429;-49
2022/07/21 13:44:56;;;;;;;9.00;5.80;;;;;;;;;;5035113;28;20511;-50
2022/07/21 13:47:22;;;;;;;5.23;4.73;;;;;;;;;;5046194;28;20582;-49
2022/07/21 13:49:48;;;;;;;4.83;4.23;;;;;;;;;;5032362;28;20926;-49
2022/07/21 13:52:14;;;;;;;3.80;3.50;;;;;;;;;;5038562;28;20468;-50
2022/07/21 13:54:40;;;;;;;6.13;4.13;;;;;;;;;;5049616;28;20432;-49
2022/07/21 13:57:06;;;;;;;5.13;4.03;;;;;;;;;;5043065;28;20422;-47
2022/07/21 13:59:32;;;;;;;4.43;4.03;;;;;;;;;;5047842;28;20454;-50
2022/07/21 14:01:58;;;;;;;5.50;4.93;;;;;;;;;;5045666;28;20950;-49
2022/07/21 14:04:24;;;;;;;7.63;4.77;;;;;;;;;;5032433;28;20430;-51
2022/07/21 14:06:52;;;;;;;5.00;4.60;;;;;;;;;;5046675;28;20961;-49
2022/07/21 14:09:18;;;;;;;5.37;4.97;;;;;;;;;;5045856;28;20533;-49
2022/07/21 14:11:44;;;;;;;6.00;5.50;;;;;;;;;;5044173;28;20470;-49
2022/07/21 14:14:16;;;;;;;5.90;5.40;;;;;;;;;;5038514;28;20937;-49
2022/07/21 14:16:42;;;;;;;6.57;5.93;;;;;;;;;;5043296;28;20421;-50
2022/07/21 14:19:08;;;;;;;7.27;6.53;;;;;;;;;;5047557;28;20771;-49
2022/07/21 14:21:34;;;;;;;11.97;7.23;;;;;;;;;;5038005;28;20428;-50
2022/07/21 14:26:45;;;;;;;11.80;10.57;;;;;;;;;;5051229;28;20977;-50
2022/07/21 14:29:11;;;;;;;11.00;9.63;;;;;;;;;;5046130;28;20446;-51
2022/07/21 14:31:37;;;;;;;14.17;10.93;;;;;;;;;;5030923;28;20836;-50
2022/07/21 14:34:03;;;;;;;13.13;11.77;;;;;;;;;;5032030;28;20464;-48
2022/07/21 14:36:29;;;;;;;14.20;11.70;;;;;;;;;;5033731;28;20459;-50
2022/07/21 14:38:55;;;;;;;12.73;11.07;;;;;;;;;;5035692;28;20446;-48